Time;durP1;ratioP1;P1;durP2;ratioP2;P2;SDS_P1;SDS_P2;PMS_P1;PMS_P2;Temp;Humidity;BMP_temperature;BMP_pressure;BME280_temperature;BME280_humidity;BME280_pressure;Samples;Min_cycle;Max_cycle;Signal;HPM_P1;HPM_P2
2021/06/02 00:00:37;;;;;;;5.78;4.80;;;10.80;99.90;;;;;;5022796;28;20085;-65
2021/06/02 00:03:04;;;;;;;5.75;5.15;;;10.70;99.90;;;;;;5020686;28;20050;-65
2021/06/02 00:05:31;;;;;;;5.85;3.67;;;10.70;99.90;;;;;;5020520;28;20068;-64
2021/06/02 00:07:59;;;;;;;6.03;3.50;;;10.80;99.90;;;;;;5021747;28;20491;-65
2021/06/02 00:10:26;;;;;;;6.43;4.00;;;10.70;99.90;;;;;;5016359;28;20492;-65
2021/06/02 00:12:54;;;;;;;6.60;3.92;;;10.70;99.90;;;;;;5021684;28;20112;-65
2021/06/02 00:15:21;;;;;;;8.45;5.00;;;10.70;99.90;;;;;;5022382;28;20138;-65
2021/06/02 00:17:51;;;;;;;8.00;3.75;;;10.70;99.90;;;;;;5019519;28;20041;-65
2021/06/02 00:20:18;;;;;;;5.90;3.60;;;10.70;99.90;;;;;;5019068;28;20141;-64
2021/06/02 00:22:46;;;;;;;8.73;3.88;;;10.70;99.90;;;;;;5018003;28;20038;-64
2021/06/02 00:25:14;;;;;;;5.65;3.63;;;10.70;99.90;;;;;;5018305;28;20052;-65
2021/06/02 00:27:41;;;;;;;6.90;4.45;;;10.70;99.90;;;;;;5020510;28;20100;-65
2021/06/02 00:30:10;;;;;;;4.35;3.50;;;10.60;99.90;;;;;;5019648;28;20052;-65
2021/06/02 00:32:38;;;;;;;5.22;3.65;;;10.60;99.90;;;;;;5015871;28;20074;-65
2021/06/02 00:35:10;;;;;;;3.65;3.25;;;10.60;99.90;;;;;;5015673;28;20087;-65
2021/06/02 00:37:39;;;;;;;4.55;3.90;;;10.60;99.90;;;;;;5019099;28;20107;-65
2021/06/02 00:40:08;;;;;;;6.25;3.45;;;10.50;99.90;;;;;;5019793;28;20400;-64
2021/06/02 00:42:35;;;;;;;4.30;3.90;;;10.50;99.90;;;;;;5021583;28;20075;-64
2021/06/02 00:45:03;;;;;;;7.60;3.35;;;10.50;99.90;;;;;;5022000;28;20065;-65
2021/06/02 00:47:35;;;;;;;4.03;3.72;;;10.50;99.90;;;;;;5019733;28;20045;-64
2021/06/02 00:50:02;;;;;;;5.63;3.10;;;10.50;99.90;;;;;;5016880;28;20041;-65
2021/06/02 00:52:30;;;;;;;8.23;3.55;;;10.50;99.90;;;;;;5015111;28;20088;-65
2021/06/02 00:54:57;;;;;;;14.90;4.85;;;10.50;99.90;;;;;;5015450;28;20049;-64
2021/06/02 00:57:27;;;;;;;6.45;3.70;;;10.50;99.90;;;;;;5017970;28;20053;-65
2021/06/02 01:00:04;;;;;;;4.83;4.17;;;10.50;99.90;;;;;;5019338;28;20130;-65
2021/06/02 01:02:33;;;;;;;6.60;3.80;;;10.50;99.90;;;;;;5020104;28;20361;-65
2021/06/02 01:05:00;;;;;;;5.03;3.50;;;10.40;99.90;;;;;;5019180;28;20114;-64
2021/06/02 01:07:27;;;;;;;5.40;3.83;;;10.40;99.90;;;;;;5015602;28;20069;-64
2021/06/02 01:09:56;;;;;;;7.25;3.63;;;10.40;99.90;;;;;;5015865;28;20050;-65
2021/06/02 01:12:25;;;;;;;11.38;3.30;;;10.40;99.90;;;;;;5020265;28;20073;-65
2021/06/02 01:14:54;;;;;;;6.28;3.25;;;10.40;99.90;;;;;;5018806;28;20134;-64
2021/06/02 01:17:23;;;;;;;4.30;3.67;;;10.40;99.90;;;;;;5018666;28;20059;-64
2021/06/02 01:19:53;;;;;;;4.38;3.92;;;10.40;99.90;;;;;;5016852;28;20052;-64
2021/06/02 01:22:20;;;;;;;5.93;4.05;;;10.40;99.90;;;;;;5017228;28;20061;-65
2021/06/02 01:24:47;;;;;;;5.28;4.68;;;10.40;99.90;;;;;;5018205;28;20408;-64
2021/06/02 01:27:15;;;;;;;3.22;2.88;;;10.40;99.90;;;;;;5019869;28;20049;-65
2021/06/02 01:29:50;;;;;;;5.20;4.40;;;10.40;99.90;;;;;;5018663;28;20053;-65
2021/06/02 01:32:48;;;;;;;6.43;3.42;;;10.40;99.90;;;;;;5026589;28;20053;-65
2021/06/02 01:35:53;;;;;;;4.13;3.33;;;10.40;99.90;;;;;;5019111;28;20049;-65
2021/06/02 01:38:45;;;;;;;5.15;3.53;;;10.40;99.90;;;;;;5013865;28;20045;-65
2021/06/02 01:41:26;;;;;;;3.53;3.17;;;10.30;99.90;;;;;;5024839;28;20135;-64
2021/06/02 01:44:18;;;;;;;8.43;3.80;;;10.30;99.90;;;;;;5014968;28;20095;-65
2021/06/02 01:47:23;;;;;;;4.85;3.20;;;10.30;99.90;;;;;;5021339;28;20093;-65
2021/06/02 01:50:28;;;;;;;5.72;3.38;;;10.30;99.90;;;;;;5018007;28;20069;-64
2021/06/02 01:53:20;;;;;;;3.53;3.22;;;10.30;99.90;;;;;;5014512;28;20073;-64
2021/06/02 01:56:02;;;;;;;6.25;4.20;;;10.30;99.90;;;;;;5017556;28;20083;-64
2021/06/02 01:58:48;;;;;;;5.25;3.72;;;10.30;99.90;;;;;;5019378;28;20546;-65
2021/06/02 02:01:45;;;;;;;6.55;3.70;;;10.20;99.90;;;;;;5018442;28;20684;-65
2021/06/02 02:04:23;;;;;;;5.57;3.88;;;10.20;99.90;;;;;;5014783;28;20153;-64
2021/06/02 02:07:13;;;;;;;7.78;3.13;;;10.20;99.90;;;;;;5022251;28;20057;-65
2021/06/02 02:10:05;;;;;;;5.72;4.45;;;10.20;99.90;;;;;;5017847;28;20045;-64
2021/06/02 02:13:12;;;;;;;5.00;3.38;;;10.20;99.90;;;;;;5014813;28;20053;-65
2021/06/02 02:16:17;;;;;;;10.65;4.68;;;10.10;99.90;;;;;;5019596;28;20052;-65
2021/06/02 02:18:50;;;;;;;5.75;3.40;;;10.10;99.90;;;;;;5015280;28;20080;-64
2021/06/02 02:21:50;;;;;;;6.10;4.20;;;10.10;99.90;;;;;;5022167;28;20057;-65
2021/06/02 02:24:49;;;;;;;5.68;3.45;;;10.10;99.90;;;;;;5016006;28;20053;-65
2021/06/02 02:27:22;;;;;;;5.13;4.63;;;10.10;99.90;;;;;;5017547;28;20115;-65
2021/06/02 02:29:59;;;;;;;8.57;3.88;;;10.10;99.90;;;;;;5015423;28;20057;-64
2021/06/02 02:32:44;;;;;;;5.95;3.70;;;10.10;99.90;;;;;;5020064;28;20103;-64
2021/06/02 02:35:34;;;;;;;5.57;3.65;;;10.10;99.90;;;;;;5020919;28;20049;-64
2021/06/02 02:38:37;;;;;;;6.07;3.90;;;10.10;99.90;;;;;;5014356;28;20061;-64
2021/06/02 02:41:32;;;;;;;6.45;4.78;;;10.10;99.90;;;;;;5021400;28;20123;-64
2021/06/02 02:44:06;;;;;;;6.88;3.95;;;10.10;99.90;;;;;;5015628;28;20167;-64
2021/06/02 02:46:48;;;;;;;6.80;3.72;;;10.10;99.90;;;;;;5018933;28;20064;-64
2021/06/02 02:49:33;;;;;;;4.18;3.58;;;10.20;99.90;;;;;;5020006;28;20111;-64
2021/06/02 02:52:23;;;;;;;8.82;4.22;;;10.10;99.90;;;;;;5016502;28;20069;-65
2021/06/02 02:55:12;;;;;;;5.40;4.82;;;10.20;99.90;;;;;;5022662;28;20437;-64
2021/06/02 02:57:51;;;;;;;4.80;4.18;;;10.20;99.90;;;;;;5019712;28;20088;-64
2021/06/02 03:00:27;;;;;;;7.18;4.20;;;10.20;99.90;;;;;;5023656;28;20569;-64
2021/06/02 03:03:03;;;;;;;5.55;3.92;;;10.20;99.90;;;;;;5018571;28;20050;-65
2021/06/02 03:05:33;;;;;;;5.95;3.70;;;10.20;99.90;;;;;;5022258;28;20087;-65
2021/06/02 03:08:07;;;;;;;;;;;10.20;99.90;;;;;;5020186;28;20049;-64
2021/06/02 03:10:39;;;;;;;10.27;4.07;;;10.30;99.90;;;;;;5021791;28;20387;-64
2021/06/02 03:13:20;;;;;;;5.55;4.10;;;10.30;99.90;;;;;;5021065;28;20038;-64
2021/06/02 03:15:49;;;;;;;4.55;3.45;;;10.30;99.90;;;;;;5019516;28;20538;-65
2021/06/02 03:18:19;;;;;;;5.18;3.58;;;10.40;99.90;;;;;;5020333;28;20679;-64
2021/06/02 03:20:58;;;;;;;6.10;3.85;;;10.40;99.90;;;;;;5016915;28;20495;-64
2021/06/02 03:23:44;;;;;;;5.72;3.40;;;10.40;99.90;;;;;;5019883;28;20075;-65
2021/06/02 03:26:18;;;;;;;7.95;4.93;;;10.40;99.90;;;;;;5020162;28;20103;-65
2021/06/02 03:29:06;;;;;;;6.35;3.35;;;10.50;99.90;;;;;;5021930;28;20065;-65
2021/06/02 03:32:19;;;;;;;10.85;4.15;;;10.50;99.90;;;;;;5022514;28;20481;-65
2021/06/02 03:34:51;;;;;;;6.18;3.97;;;10.60;99.90;;;;;;5022616;28;20115;-64
2021/06/02 03:37:37;;;;;;;4.15;3.13;;;10.70;99.90;;;;;;5028528;28;20125;-64
2021/06/02 03:40:37;;;;;;;4.78;3.80;;;10.70;99.90;;;;;;5016628;28;20108;-64
2021/06/02 03:43:26;;;;;;;6.20;3.53;;;10.80;99.90;;;;;;5016961;28;20480;-65
2021/06/02 03:46:08;;;;;;;6.75;3.65;;;10.90;99.90;;;;;;5022370;28;20133;-65
2021/06/02 03:49:06;;;;;;;5.07;3.42;;;11.00;99.90;;;;;;5018303;28;20164;-64
2021/06/02 03:51:41;;;;;;;4.60;3.28;;;11.00;99.90;;;;;;5024542;28;20124;-65
2021/06/02 03:54:19;;;;;;;6.38;3.75;;;11.10;99.90;;;;;;5020712;28;20042;-65
2021/06/02 03:57:13;;;;;;;7.80;3.67;;;11.10;99.90;;;;;;5018894;28;20046;-64
2021/06/02 04:00:02;;;;;;;3.95;3.55;;;11.20;99.90;;;;;;5021142;28;20408;-65
2021/06/02 04:02:44;;;;;;;3.92;3.40;;;11.30;99.90;;;;;;5019381;28;20070;-64
2021/06/02 04:05:41;;;;;;;4.28;3.45;;;11.30;99.90;;;;;;5018465;28;20132;-65
2021/06/02 04:08:23;;;;;;;6.20;3.38;;;11.40;99.90;;;;;;5013749;28;20483;-65
2021/06/02 04:11:08;;;;;;;8.32;3.10;;;11.40;99.90;;;;;;5020146;28;20038;-64
2021/06/02 04:13:56;;;;;;;3.72;3.17;;;11.50;99.90;;;;;;5016934;28;20065;-65
2021/06/02 04:16:34;;;;;;;6.75;3.63;;;11.60;99.90;;;;;;5025004;28;20045;-64
2021/06/02 04:19:09;;;;;;;7.72;2.90;;;11.60;99.90;;;;;;5021905;28;20050;-65
2021/06/02 04:21:39;;;;;;;7.40;2.95;;;11.70;99.90;;;;;;5013106;28;20151;-65
2021/06/02 04:24:16;;;;;;;5.78;3.65;;;11.80;99.90;;;;;;5017598;28;20800;-65
2021/06/02 04:26:43;;;;;;;6.75;4.50;;;11.90;99.90;;;;;;5021373;28;20073;-65
2021/06/02 04:29:13;;;;;;;6.82;3.38;;;12.00;99.90;;;;;;5019441;28;20078;-64
2021/06/02 04:31:57;;;;;;;6.82;3.80;;;12.00;99.90;;;;;;5018249;28;20115;-64
2021/06/02 04:34:26;;;;;;;4.40;3.22;;;12.10;99.90;;;;;;5019452;28;20712;-64
2021/06/02 04:36:55;;;;;;;4.45;2.53;;;12.20;99.90;;;;;;5014971;28;20802;-64
2021/06/02 04:39:23;;;;;;;5.45;3.30;;;12.30;99.90;;;;;;5020363;28;20099;-64
2021/06/02 04:41:58;;;;;;;6.63;3.38;;;12.40;99.90;;;;;;5018581;28;20057;-64
2021/06/02 04:44:27;;;;;;;3.85;3.15;;;12.40;99.90;;;;;;5020439;28;20088;-64
2021/06/02 04:46:54;;;;;;;3.15;2.80;;;12.50;99.90;;;;;;5019431;28;20041;-64
2021/06/02 04:49:48;;;;;;;8.95;3.70;;;12.60;99.90;;;;;;5018683;28;20073;-65
2021/06/02 04:52:39;;;;;;;6.47;3.05;;;12.70;99.90;;;;;;5019674;28;20037;-65
2021/06/02 04:55:48;;;;;;;6.07;2.88;;;12.80;99.90;;;;;;5026216;28;20098;-65
2021/06/02 04:58:44;;;;;;;4.07;3.67;;;12.90;99.90;;;;;;5012022;28;20709;-65
2021/06/02 05:01:36;;;;;;;4.60;3.28;;;13.00;99.90;;;;;;5020459;28;20359;-65
2021/06/02 05:04:18;;;;;;;4.30;3.08;;;13.10;99.90;;;;;;5018648;28;20041;-64
2021/06/02 05:07:03;;;;;;;5.80;2.90;;;13.30;99.90;;;;;;5008778;28;20045;-65
2021/06/02 05:09:56;;;;;;;5.57;2.97;;;13.30;99.90;;;;;;5018412;28;20072;-64
2021/06/02 05:12:42;;;;;;;7.75;4.20;;;13.40;99.90;;;;;;5020355;28;20100;-65
2021/06/02 05:15:28;;;;;;;3.42;3.05;;;13.50;99.90;;;;;;5021407;28;20042;-64
2021/06/02 05:18:16;;;;;;;3.85;2.53;;;13.60;99.90;;;;;;5014948;28;20109;-64
2021/06/02 05:24:02;;;;;;;4.82;2.45;;;13.80;99.90;;;;;;5018750;28;20552;-65
2021/06/02 05:27:17;;;;;;;3.50;3.20;;;13.90;99.90;;;;;;5013601;28;20061;-65
2021/06/02 05:30:03;;;;;;;7.40;3.25;;;14.00;99.90;;;;;;5015752;28;20443;-65
2021/06/02 05:32:33;;;;;;;3.28;2.53;;;14.10;99.90;;;;;;5018139;28;20376;-65
2021/06/02 05:35:21;;;;;;;3.08;2.55;;;14.20;99.90;;;;;;5019667;28;20038;-65
2021/06/02 05:38:07;;;;;;;4.07;3.05;;;14.30;99.90;;;;;;5017005;28;20053;-65
2021/06/02 05:40:45;;;;;;;7.13;2.97;;;14.30;99.90;;;;;;5017001;28;20046;-65
2021/06/02 05:43:18;;;;;;;10.07;3.00;;;14.40;99.90;;;;;;5018108;28;20099;-65
2021/06/02 05:46:20;;;;;;;5.75;2.88;;;14.50;99.90;;;;;;5020973;28;20446;-65
2021/06/02 05:49:18;;;;;;;3.10;2.47;;;14.60;99.90;;;;;;5020256;28;20687;-65
2021/06/02 05:51:57;;;;;;;3.97;3.50;;;14.70;99.90;;;;;;5008369;28;20041;-65
2021/06/02 05:55:01;;;;;;;8.50;4.20;;;14.70;99.90;;;;;;5021401;28;20099;-65
2021/06/02 05:58:05;;;;;;;10.00;3.10;;;14.80;99.90;;;;;;5015546;28;20065;-65
2021/06/02 06:00:53;;;;;;;2.88;2.58;;;14.90;99.90;;;;;;5018791;28;20479;-64
2021/06/02 06:03:46;;;;;;;16.95;3.55;;;15.00;99.90;;;;;;5015760;28;20392;-65
2021/06/02 06:06:30;;;;;;;5.55;3.40;;;15.10;99.90;;;;;;2022976;28;10022834;-64
2021/06/02 06:09:26;;;;;;;5.85;2.65;;;15.20;99.90;;;;;;4676175;28;10001472;-64
2021/06/02 06:12:36;;;;;;;6.50;2.80;;;15.30;99.90;;;;;;5017134;28;20052;-64
2021/06/02 06:15:26;;;;;;;4.25;2.85;;;15.50;99.90;;;;;;5028073;28;20114;-64
2021/06/02 06:18:23;;;;;;;10.68;3.53;;;15.60;99.90;;;;;;5015279;28;20049;-64
2021/06/02 06:21:02;;;;;;;5.18;3.13;;;15.70;99.90;;;;;;5015596;28;20835;-64
2021/06/02 06:24:03;;;;;;;4.18;2.50;;;15.90;99.90;;;;;;5016436;28;20482;-64
2021/06/02 06:26:53;;;;;;;5.75;2.67;;;16.00;99.90;;;;;;5016559;28;20077;-64
2021/06/02 06:29:31;;;;;;;4.72;2.95;;;16.10;99.90;;;;;;5023433;28;20079;-64
2021/06/02 06:32:00;;;;;;;3.00;2.70;;;16.30;99.90;;;;;;5022692;28;20103;-64
2021/06/02 06:34:32;;;;;;;5.50;2.42;;;16.40;99.90;;;;;;5030892;28;20551;-64
2021/06/02 06:37:00;;;;;;;5.68;2.38;;;16.40;99.90;;;;;;5018330;28;20080;-65
2021/06/02 06:39:31;;;;;;;2.47;2.28;;;16.50;99.90;;;;;;5028795;28;20400;-64
2021/06/02 06:41:59;;;;;;;;;;;16.60;99.90;;;;;;5021180;28;20835;-64
2021/06/02 06:44:27;;;;;;;3.63;2.67;;;16.70;99.90;;;;;;5018148;28;19926;-64
2021/06/02 06:46:55;;;;;;;7.05;2.60;;;16.80;99.90;;;;;;5019391;28;20065;-64
2021/06/02 06:49:24;;;;;;;5.75;3.00;;;16.90;99.90;;;;;;5023977;28;20065;-64
2021/06/02 06:51:53;;;;;;;4.63;2.40;;;17.00;99.90;;;;;;5018113;28;20100;-64
2021/06/02 06:54:22;;;;;;;5.68;2.63;;;17.00;99.90;;;;;;5025853;28;20804;-64
2021/06/02 06:56:50;;;;;;;5.32;2.38;;;17.10;99.90;;;;;;5018972;28;20226;-64
2021/06/02 06:59:19;;;;;;;3.10;2.88;;;17.20;99.90;;;;;;5024974;28;20046;-65
2021/06/02 07:01:46;;;;;;;4.20;2.78;;;17.30;99.90;;;;;;5017764;28;20157;-64
2021/06/02 07:04:14;;;;;;;2.50;2.30;;;17.40;99.90;;;;;;5023278;28;20103;-64
2021/06/02 07:06:44;;;;;;;3.70;2.50;;;17.50;99.90;;;;;;5021765;28;20056;-64
2021/06/02 07:09:12;;;;;;;;;;;17.60;99.90;;;;;;5020106;28;20058;-64
2021/06/02 07:11:40;;;;;;;5.35;3.13;;;17.60;99.90;;;;;;5020246;28;19975;-64
2021/06/02 07:14:15;;;;;;;3.50;2.92;;;17.60;99.90;;;;;;5022825;28;20123;-64
2021/06/02 07:16:42;;;;;;;5.80;3.17;;;17.70;99.90;;;;;;5017067;28;20103;-64
2021/06/02 07:19:12;;;;;;;6.68;3.40;;;17.80;99.90;;;;;;5021173;28;20049;-64
2021/06/02 07:21:40;;;;;;;;;;;17.90;99.90;;;;;;5019285;28;20061;-64
2021/06/02 07:24:10;;;;;;;3.53;3.22;;;17.90;99.90;;;;;;5021653;28;20466;-64
2021/06/02 07:26:39;;;;;;;3.42;2.35;;;17.90;99.90;;;;;;5016963;28;20110;-65
2021/06/02 07:29:23;;;;;;;4.32;2.53;;;18.00;99.90;;;;;;5022434;28;20053;-65
2021/06/02 07:31:50;;;;;;;4.82;3.60;;;18.00;99.90;;;;;;5018534;28;20065;-65
2021/06/02 07:34:17;;;;;;;2.58;2.22;;;18.10;99.90;;;;;;5024825;28;20131;-64
2021/06/02 07:36:44;;;;;;;5.35;2.55;;;18.10;99.90;;;;;;5019141;28;20115;-65
2021/06/02 07:39:11;;;;;;;2.97;2.75;;;18.10;99.90;;;;;;5021543;28;20117;-64
2021/06/02 07:41:38;;;;;;;9.10;2.78;;;18.00;99.90;;;;;;5018115;28;20117;-64
2021/06/02 07:44:06;;;;;;;3.70;2.17;;;18.10;99.90;;;;;;5022149;28;20053;-65
2021/06/02 07:46:35;;;;;;;5.10;3.05;;;18.10;99.90;;;;;;5020983;28;20372;-64
2021/06/02 07:49:04;;;;;;;3.15;2.80;;;18.20;99.90;;;;;;5021429;28;20605;-64
2021/06/02 07:51:31;;;;;;;3.17;2.83;;;18.30;99.90;;;;;;5021029;28;20105;-64
2021/06/02 07:53:58;;;;;;;5.07;3.17;;;18.40;99.90;;;;;;5020159;28;20081;-64
2021/06/02 07:56:25;;;;;;;4.43;2.10;;;18.60;99.90;;;;;;5020258;28;20052;-64
2021/06/02 07:58:52;;;;;;;6.57;3.20;;;18.70;99.90;;;;;;5024371;28;20076;-65
2021/06/02 08:01:19;;;;;;;5.75;2.58;;;18.80;99.90;;;;;;5020092;28;20490;-65
2021/06/02 08:03:46;;;;;;;7.13;2.35;;;19.00;99.90;;;;;;5020784;28;20137;-65
2021/06/02 08:06:13;;;;;;;9.30;3.03;;;19.10;99.90;;;;;;5019478;28;20523;-64
2021/06/02 08:08:40;;;;;;;4.70;2.78;;;19.20;99.90;;;;;;5020671;28;20148;-64
2021/06/02 08:11:07;;;;;;;4.85;2.55;;;19.30;99.90;;;;;;5019485;28;20044;-64
2021/06/02 08:13:34;;;;;;;4.28;2.30;;;19.40;99.90;;;;;;5017239;28;20057;-64
2021/06/02 08:16:01;;;;;;;4.15;2.45;;;19.50;99.90;;;;;;5018398;28;20136;-64
2021/06/02 08:18:28;;;;;;;3.67;2.47;;;19.70;99.90;;;;;;5020592;28;20139;-64
2021/06/02 08:20:56;;;;;;;6.18;2.92;;;19.80;99.90;;;;;;5018323;28;20100;-64
2021/06/02 08:23:23;;;;;;;5.47;2.83;;;19.80;99.90;;;;;;5018115;28;20434;-64
2021/06/02 08:25:50;;;;;;;2.00;1.90;;;19.90;99.90;;;;;;5019533;28;20119;-64
2021/06/02 08:28:20;;;;;;;4.03;3.08;;;20.00;99.90;;;;;;5020744;28;20577;-64
2021/06/02 08:30:48;;;;;;;5.97;2.42;;;20.10;99.90;;;;;;5020267;28;20445;-64
2021/06/02 08:33:15;;;;;;;2.42;2.13;;;20.10;99.90;;;;;;5017445;28;20144;-64
2021/06/02 08:35:42;;;;;;;4.43;2.67;;;20.20;99.90;;;;;;5018751;28;20064;-64
2021/06/02 08:38:09;;;;;;;4.00;2.25;;;20.40;99.90;;;;;;5018690;28;20537;-64
2021/06/02 08:40:37;;;;;;;4.35;2.47;;;20.50;99.90;;;;;;5018328;28;20119;-64
2021/06/02 08:43:05;;;;;;;2.55;2.05;;;20.70;99.90;;;;;;5018636;28;20129;-64
2021/06/02 08:45:32;;;;;;;6.45;2.53;;;20.90;99.90;;;;;;5018961;28;20175;-64
2021/06/02 08:48:00;;;;;;;2.80;1.83;;;20.90;99.90;;;;;;5017789;28;20057;-64
2021/06/02 08:50:27;;;;;;;4.00;1.48;;;20.90;99.90;;;;;;5021201;28;20073;-64
2021/06/02 08:53:00;;;;;;;5.53;2.67;;;20.80;99.90;;;;;;5020380;28;20029;-64
2021/06/02 08:55:27;;;;;;;2.30;1.67;;;20.80;98.80;;;;;;5019661;28;20050;-64
2021/06/02 08:57:56;;;;;;;3.05;1.90;;;20.90;99.10;;;;;;5016068;28;20107;-64
2021/06/02 09:00:24;;;;;;;2.08;1.92;;;20.90;97.00;;;;;;5021274;28;20045;-64
2021/06/02 09:02:55;;;;;;;2.45;2.08;;;20.90;96.20;;;;;;5018602;28;20115;-64
2021/06/02 09:05:24;;;;;;;2.05;1.90;;;20.90;97.10;;;;;;5021753;28;20149;-64
2021/06/02 09:07:53;;;;;;;2.33;2.00;;;21.00;97.20;;;;;;5013802;28;20141;-64
2021/06/02 09:10:22;;;;;;;9.07;2.17;;;20.90;96.20;;;;;;5019149;28;20046;-64
2021/06/02 09:13:02;;;;;;;2.05;1.80;;;21.00;95.90;;;;;;5017238;28;20124;-64
2021/06/02 09:15:34;;;;;;;3.83;2.55;;;21.20;96.70;;;;;;5020155;28;20041;-64
2021/06/02 09:18:04;;;;;;;4.28;2.15;;;21.20;95.50;;;;;;5019326;28;20045;-64
2021/06/02 09:20:44;;;;;;;3.97;2.03;;;21.20;94.70;;;;;;5019388;28;20045;-64
2021/06/02 09:23:32;;;;;;;2.05;1.08;;;21.30;92.80;;;;;;5019253;28;21767;-64
2021/06/02 09:25:58;;;;;;;1.50;1.40;;;21.30;92.60;;;;;;5015404;28;20073;-64
2021/06/02 09:29:11;;;;;;;1.83;1.55;;;21.20;92.70;;;;;;5019093;28;20049;-64
2021/06/02 09:31:40;;;;;;;3.05;1.88;;;21.20;91.90;;;;;;5031881;28;20133;-64
2021/06/02 09:34:25;;;;;;;1.63;1.52;;;21.30;92.10;;;;;;5037051;28;20103;-64
2021/06/02 09:37:02;;;;;;;2.78;1.35;;;21.30;90.60;;;;;;5024195;28;20052;-64
2021/06/02 09:39:37;;;;;;;4.47;1.88;;;21.40;91.50;;;;;;5016207;28;20046;-64
2021/06/02 09:42:19;;;;;;;3.53;1.90;;;21.50;87.70;;;;;;5019254;28;20414;-64
2021/06/02 09:45:05;;;;;;;3.30;1.80;;;21.60;85.10;;;;;;5020398;28;20049;-64
2021/06/02 09:47:41;;;;;;;1.90;1.80;;;21.70;86.80;;;;;;5018087;28;20136;-64
2021/06/02 09:50:13;;;;;;;3.47;1.83;;;21.80;89.90;;;;;;5019266;28;20069;-64
2021/06/02 09:52:50;;;;;;;2.38;1.85;;;21.90;87.10;;;;;;5016975;28;20076;-63
2021/06/02 09:55:38;;;;;;;1.58;1.48;;;22.00;88.10;;;;;;5027029;28;20046;-64
2021/06/02 09:58:05;;;;;;;1.83;1.73;;;22.20;85.90;;;;;;5023009;28;21109;-64
2021/06/02 10:00:59;;;;;;;1.88;1.65;;;22.20;86.60;;;;;;5019621;28;20045;-64
2021/06/02 10:03:30;;;;;;;4.07;2.30;;;22.20;83.70;;;;;;5019314;28;20131;-64
2021/06/02 10:05:57;;;;;;;3.20;1.85;;;22.40;84.60;;;;;;5024941;28;20407;-64
2021/06/02 10:08:29;;;;;;;2.40;1.50;;;22.40;83.20;;;;;;5021547;28;20077;-63
2021/06/02 10:11:09;;;;;;;3.80;1.90;;;22.50;81.80;;;;;;5024236;28;20053;-64
2021/06/02 10:13:38;;;;;;;3.05;2.75;;;22.50;80.40;;;;;;5022111;28;20061;-63
2021/06/02 10:16:05;;;;;;;2.65;1.55;;;22.40;79.20;;;;;;5023455;28;20049;-64
2021/06/02 10:18:37;;;;;;;3.50;1.85;;;22.40;79.40;;;;;;5022902;28;20501;-64
2021/06/02 10:21:13;;;;;;;2.15;1.95;;;22.50;78.00;;;;;;5022763;28;20057;-64
2021/06/02 10:23:43;;;;;;;1.77;1.63;;;22.60;76.80;;;;;;5017505;28;20064;-64
2021/06/02 10:26:17;;;;;;;;;;;22.60;78.40;;;;;;5021882;28;20052;-64
2021/06/02 10:28:46;;;;;;;4.65;1.92;;;22.70;78.10;;;;;;5023606;28;19964;-64
2021/06/02 10:31:14;;;;;;;3.17;1.77;;;22.50;78.20;;;;;;5022777;28;20049;-64
2021/06/02 10:33:41;;;;;;;2.85;1.02;;;22.60;74.90;;;;;;5021362;28;20045;-64
2021/06/02 10:36:09;;;;;;;2.78;1.23;;;22.70;75.90;;;;;;5021716;28;20566;-64
2021/06/02 10:38:45;;;;;;;2.85;1.67;;;22.80;77.00;;;;;;5022348;28;20045;-64
2021/06/02 10:41:18;;;;;;;3.50;1.88;;;22.80;71.40;;;;;;5024255;28;20103;-64
2021/06/02 10:43:50;;;;;;;2.95;1.90;;;22.70;72.20;;;;;;5016975;28;20535;-64
2021/06/02 10:46:22;;;;;;;2.08;1.88;;;22.80;71.40;;;;;;5023412;28;20069;-64
2021/06/02 10:48:55;;;;;;;4.53;2.05;;;22.70;70.30;;;;;;5023009;28;20041;-64
2021/06/02 10:51:42;;;;;;;4.00;1.40;;;22.90;70.30;;;;;;5022389;28;20058;-64
2021/06/02 10:54:28;;;;;;;3.20;1.67;;;22.70;69.60;;;;;;5005842;28;20099;-64
2021/06/02 10:56:58;;;;;;;1.45;1.10;;;22.80;69.70;;;;;;5022439;28;20138;-64
2021/06/02 10:59:32;;;;;;;2.30;1.30;;;22.80;66.80;;;;;;5014337;28;20057;-64
2021/06/02 11:02:09;;;;;;;2.05;1.48;;;23.00;67.50;;;;;;5023622;28;20048;-64
2021/06/02 11:04:41;;;;;;;3.38;1.60;;;23.10;70.50;;;;;;5022575;28;20048;-64
2021/06/02 11:07:30;;;;;;;5.63;1.27;;;23.20;66.40;;;;;;5023441;28;20050;-64
2021/06/02 11:10:09;;;;;;;2.10;1.30;;;23.30;65.20;;;;;;5020946;28;20060;-64
2021/06/02 11:12:48;;;;;;;2.25;1.45;;;23.40;65.10;;;;;;5019488;28;21579;-64
2021/06/02 11:15:30;;;;;;;1.20;1.10;;;23.40;67.00;;;;;;5024462;28;20041;-64
2021/06/02 11:18:09;;;;;;;1.73;1.17;;;23.40;65.70;;;;;;5021167;28;20064;-64
2021/06/02 11:20:44;;;;;;;2.75;1.15;;;23.50;65.40;;;;;;5025223;28;20033;-64
2021/06/02 11:23:13;;;;;;;3.47;1.15;;;23.40;63.80;;;;;;5025668;28;20076;-64
2021/06/02 11:25:41;;;;;;;1.37;1.20;;;23.50;63.20;;;;;;5019773;28;20069;-64
2021/06/02 11:28:29;;;;;;;3.03;1.40;;;23.50;62.60;;;;;;5021761;28;20366;-64
2021/06/02 11:31:32;;;;;;;1.63;1.20;;;23.70;64.00;;;;;;5022802;28;20466;-64
2021/06/02 11:34:28;;;;;;;2.00;1.63;;;23.90;63.80;;;;;;5033875;28;20053;-64
2021/06/02 11:37:01;;;;;;;1.85;1.38;;;23.90;60.70;;;;;;5021825;28;20068;-64
2021/06/02 11:39:28;;;;;;;3.47;1.13;;;23.90;61.60;;;;;;5016377;28;20057;-64
2021/06/02 11:41:58;;;;;;;4.15;1.25;;;23.80;61.20;;;;;;5021800;28;20133;-64
2021/06/02 11:44:29;;;;;;;1.60;1.50;;;23.80;61.60;;;;;;5017501;28;20747;-64
2021/06/02 11:46:56;;;;;;;6.43;1.73;;;23.80;62.50;;;;;;5019486;28;20103;-64
2021/06/02 11:49:33;;;;;;;1.52;1.25;;;23.90;67.80;;;;;;5019896;28;20181;-64
2021/06/02 11:52:10;;;;;;;1.60;1.35;;;24.00;61.90;;;;;;5018494;28;20065;-64
2021/06/02 11:55:03;;;;;;;4.25;1.90;;;23.80;62.90;;;;;;5018736;28;21688;-64
2021/06/02 11:57:36;;;;;;;1.75;1.13;;;23.80;63.50;;;;;;5020574;28;20172;-64
2021/06/02 12:00:12;;;;;;;1.98;1.10;;;23.90;61.30;;;;;;5015430;28;20137;-64
2021/06/02 12:02:40;;;;;;;1.85;1.67;;;24.10;62.20;;;;;;5023520;28;20037;-64
2021/06/02 12:05:33;;;;;;;3.00;1.85;;;24.00;64.50;;;;;;5023931;28;20045;-64
2021/06/02 12:08:01;;;;;;;1.33;1.23;;;24.00;62.10;;;;;;5018275;28;20041;-64
2021/06/02 12:10:35;;;;;;;3.28;1.58;;;23.90;62.60;;;;;;5023317;28;20049;-64
2021/06/02 12:13:05;;;;;;;1.77;1.48;;;23.90;61.20;;;;;;5018954;28;20080;-64
2021/06/02 12:15:55;;;;;;;2.13;1.25;;;24.00;63.80;;;;;;5018186;28;20065;-64
2021/06/02 12:18:51;;;;;;;3.00;1.60;;;24.00;62.00;;;;;;5024093;28;20049;-64
2021/06/02 12:21:27;;;;;;;4.38;1.75;;;23.60;64.30;;;;;;5019903;28;20340;-64
2021/06/02 12:23:56;;;;;;;1.73;1.63;;;23.60;66.60;;;;;;5021980;28;20492;-64
2021/06/02 12:26:25;;;;;;;2.05;1.45;;;23.70;63.20;;;;;;5017814;28;20069;-64
2021/06/02 12:28:53;;;;;;;2.08;1.63;;;23.60;61.00;;;;;;5023032;28;20153;-64
2021/06/02 12:31:33;;;;;;;1.35;1.25;;;23.60;62.20;;;;;;5017515;28;20111;-64
2021/06/02 12:34:10;;;;;;;7.95;1.42;;;23.80;62.40;;;;;;5024877;28;20048;-64
2021/06/02 12:36:49;;;;;;;3.05;1.58;;;23.80;59.90;;;;;;5022037;28;20049;-64
2021/06/02 12:39:18;;;;;;;2.92;1.55;;;23.70;61.00;;;;;;5025732;28;20084;-64
2021/06/02 12:41:48;;;;;;;2.40;1.23;;;23.80;60.90;;;;;;5018887;28;20049;-65
2021/06/02 12:44:21;;;;;;;3.08;1.77;;;23.80;58.90;;;;;;5023937;28;20045;-64
2021/06/02 12:47:05;;;;;;;1.65;1.52;;;23.90;62.00;;;;;;5017973;28;20104;-64
2021/06/02 12:49:32;;;;;;;2.97;1.10;;;24.00;62.30;;;;;;5014575;28;20061;-64
2021/06/02 12:52:00;;;;;;;7.63;2.42;;;24.20;64.30;;;;;;5018380;28;20195;-64
2021/06/02 12:54:29;;;;;;;1.58;1.48;;;24.30;58.30;;;;;;5019347;28;20052;-64
2021/06/02 12:56:58;;;;;;;3.85;1.40;;;24.40;59.20;;;;;;5018605;28;20049;-64
2021/06/02 12:59:33;;;;;;;3.85;1.40;;;24.40;57.80;;;;;;5037211;28;20191;-64
2021/06/02 13:02:06;;;;;;;1.55;0.98;;;24.10;60.60;;;;;;5016068;28;20054;-64
2021/06/02 13:04:35;;;;;;;1.50;1.08;;;24.40;59.70;;;;;;5020814;28;20127;-65
2021/06/02 13:07:02;;;;;;;1.85;1.38;;;24.40;60.80;;;;;;5016681;28;20050;-64
2021/06/02 13:09:29;;;;;;;3.80;1.20;;;24.50;59.90;;;;;;5020318;28;20054;-64
2021/06/02 13:11:56;;;;;;;2.92;1.55;;;24.50;61.00;;;;;;5016447;28;20076;-64
2021/06/02 13:14:38;;;;;;;1.58;1.17;;;24.50;60.40;;;;;;5018256;28;20049;-65
2021/06/02 13:17:06;;;;;;;1.63;1.52;;;24.60;58.50;;;;;;5014331;28;20091;-65
2021/06/02 13:19:37;;;;;;;3.58;1.40;;;24.60;60.80;;;;;;5017359;28;20130;-64
2021/06/02 13:22:05;;;;;;;2.85;1.42;;;24.50;59.50;;;;;;5015901;28;20069;-64
2021/06/02 13:24:39;;;;;;;1.90;1.40;;;24.30;60.40;;;;;;5019571;28;20068;-64
2021/06/02 13:27:13;;;;;;;1.65;1.17;;;24.40;60.40;;;;;;5019746;28;20156;-65
2021/06/02 13:30:03;;;;;;;1.10;1.00;;;24.30;57.10;;;;;;5050129;28;20041;-64
2021/06/02 13:32:30;;;;;;;1.30;1.10;;;24.50;57.70;;;;;;5012940;28;20107;-65
2021/06/02 13:35:04;;;;;;;5.25;1.20;;;24.80;60.10;;;;;;5019434;28;20045;-65
2021/06/02 13:37:41;;;;;;;3.25;1.20;;;24.90;59.80;;;;;;5014503;28;20456;-65
2021/06/02 13:40:09;;;;;;;2.42;1.33;;;25.00;58.40;;;;;;5019565;28;20392;-65